sensor_id;sensor_type;location;lat;lon;timestamp;P1;durP1;ratioP1;P2;durP2;ratioP2
60312;SDS011;46158;52.850;6.970;2023-04-24T00:00:22;2.58;;;1.67;;
60312;SDS011;46158;52.850;6.970;2023-04-24T00:02:48;2.80;;;1.85;;
60312;SDS011;46158;52.850;6.970;2023-04-24T00:05:15;2.88;;;1.77;;
60312;SDS011;46158;52.850;6.970;2023-04-24T00:07:42;2.78;;;1.60;;
60312;SDS011;46158;52.850;6.970;2023-04-24T00:10:09;1.90;;;1.70;;
60312;SDS011;46158;52.850;6.970;2023-04-24T00:12:35;3.47;;;1.73;;
60312;SDS011;46158;52.850;6.970;2023-04-24T00:15:01;2.40;;;1.70;;
60312;SDS011;46158;52.850;6.970;2023-04-24T00:17:27;2.00;;;1.50;;
60312;SDS011;46158;52.850;6.970;2023-04-24T00:19:53;3.13;;;1.70;;
60312;SDS011;46158;52.850;6.970;2023-04-24T00:22:26;1.85;;;1.55;;
60312;SDS011;46158;52.850;6.970;2023-04-24T00:24:52;1.85;;;1.60;;
60312;SDS011;46158;52.850;6.970;2023-04-24T00:27:18;4.15;;;1.70;;
60312;SDS011;46158;52.850;6.970;2023-04-24T00:29:44;2.83;;;1.60;;
60312;SDS011;46158;52.850;6.970;2023-04-24T00:32:10;2.53;;;1.60;;
60312;SDS011;46158;52.850;6.970;2023-04-24T00:34:36;1.50;;;1.40;;
60312;SDS011;46158;52.850;6.970;2023-04-24T00:37:01;1.77;;;1.67;;
60312;SDS011;46158;52.850;6.970;2023-04-24T00:39:27;1.90;;;1.58;;
60312;SDS011;46158;52.850;6.970;2023-04-24T00:41:53;3.67;;;1.70;;
60312;SDS011;46158;52.850;6.970;2023-04-24T00:44:18;2.35;;;1.70;;
60312;SDS011;46158;52.850;6.970;2023-04-24T00:46:44;2.30;;;1.70;;
60312;SDS011;46158;52.850;6.970;2023-04-24T00:49:11;1.50;;;1.40;;
60312;SDS011;46158;52.850;6.970;2023-04-24T00:51:38;1.85;;;1.63;;
60312;SDS011;46158;52.850;6.970;2023-04-24T00:54:05;1.50;;;1.40;;
60312;SDS011;46158;52.850;6.970;2023-04-24T00:56:31;2.25;;;1.70;;
60312;SDS011;46158;52.850;6.970;2023-04-24T00:58:57;1.52;;;1.42;;
60312;SDS011;46158;52.850;6.970;2023-04-24T01:01:23;1.58;;;1.48;;
60312;SDS011;46158;52.850;6.970;2023-04-24T01:03:49;2.75;;;1.55;;
60312;SDS011;46158;52.850;6.970;2023-04-24T01:06:16;1.50;;;1.38;;
60312;SDS011;46158;52.850;6.970;2023-04-24T01:08:43;1.55;;;1.27;;
60312;SDS011;46158;52.850;6.970;2023-04-24T01:11:09;1.63;;;1.50;;
60312;SDS011;46158;52.850;6.970;2023-04-24T01:13:35;2.35;;;1.48;;
60312;SDS011;46158;52.850;6.970;2023-04-24T01:16:01;2.42;;;1.40;;
60312;SDS011;46158;52.850;6.970;2023-04-24T01:18:27;2.40;;;1.35;;
60312;SDS011;46158;52.850;6.970;2023-04-24T01:20:53;1.80;;;1.40;;
60312;SDS011;46158;52.850;6.970;2023-04-24T01:23:23;1.45;;;1.35;;
60312;SDS011;46158;52.850;6.970;2023-04-24T01:25:49;1.75;;;1.50;;
60312;SDS011;46158;52.850;6.970;2023-04-24T01:28:16;2.80;;;1.50;;
60312;SDS011;46158;52.850;6.970;2023-04-24T01:30:42;1.27;;;1.27;;
60312;SDS011;46158;52.850;6.970;2023-04-24T01:33:08;2.13;;;1.50;;
60312;SDS011;46158;52.850;6.970;2023-04-24T01:35:33;2.15;;;1.40;;
60312;SDS011;46158;52.850;6.970;2023-04-24T01:38:01;1.45;;;1.35;;
60312;SDS011;46158;52.850;6.970;2023-04-24T01:40:27;1.23;;;1.20;;
60312;SDS011;46158;52.850;6.970;2023-04-24T01:42:53;1.73;;;1.48;;
60312;SDS011;46158;52.850;6.970;2023-04-24T01:45:18;1.52;;;1.42;;
60312;SDS011;46158;52.850;6.970;2023-04-24T01:47:44;2.25;;;1.40;;
60312;SDS011;46158;52.850;6.970;2023-04-24T01:50:11;2.10;;;1.40;;
60312;SDS011;46158;52.850;6.970;2023-04-24T01:52:36;1.60;;;1.50;;
60312;SDS011;46158;52.850;6.970;2023-04-24T01:55:03;1.40;;;1.30;;
60312;SDS011;46158;52.850;6.970;2023-04-24T01:57:29;1.30;;;1.20;;
60312;SDS011;46158;52.850;6.970;2023-04-24T01:59:56;1.80;;;1.30;;
60312;SDS011;46158;52.850;6.970;2023-04-24T02:02:22;1.40;;;1.30;;
60312;SDS011;46158;52.850;6.970;2023-04-24T02:04:55;1.35;;;1.30;;
60312;SDS011;46158;52.850;6.970;2023-04-24T02:07:21;1.33;;;1.23;;
60312;SDS011;46158;52.850;6.970;2023-04-24T02:09:47;1.38;;;1.30;;
60312;SDS011;46158;52.850;6.970;2023-04-24T02:12:13;1.33;;;1.23;;
60312;SDS011;46158;52.850;6.970;2023-04-24T02:14:42;1.63;;;1.35;;
60312;SDS011;46158;52.850;6.970;2023-04-24T02:17:09;1.40;;;1.30;;
60312;SDS011;46158;52.850;6.970;2023-04-24T02:19:34;1.35;;;1.35;;
60312;SDS011;46158;52.850;6.970;2023-04-24T02:22:00;1.40;;;1.17;;
60312;SDS011;46158;52.850;6.970;2023-04-24T02:24:26;1.35;;;1.15;;
60312;SDS011;46158;52.850;6.970;2023-04-24T02:26:51;1.38;;;1.27;;
60312;SDS011;46158;52.850;6.970;2023-04-24T02:29:17;1.67;;;1.15;;
60312;SDS011;46158;52.850;6.970;2023-04-24T02:31:43;1.38;;;1.25;;
60312;SDS011;46158;52.850;6.970;2023-04-24T02:34:08;1.40;;;1.30;;
60312;SDS011;46158;52.850;6.970;2023-04-24T02:36:34;1.30;;;1.20;;
60312;SDS011;46158;52.850;6.970;2023-04-24T02:39:00;1.38;;;1.27;;
60312;SDS011;46158;52.850;6.970;2023-04-24T02:41:26;1.45;;;1.35;;
60312;SDS011;46158;52.850;6.970;2023-04-24T02:43:59;1.73;;;1.40;;
60312;SDS011;46158;52.850;6.970;2023-04-24T02:46:25;1.55;;;1.20;;
60312;SDS011;46158;52.850;6.970;2023-04-24T02:48:51;1.10;;;1.10;;
60312;SDS011;46158;52.850;6.970;2023-04-24T02:51:17;0.90;;;0.90;;
60312;SDS011;46158;52.850;6.970;2023-04-24T02:53:42;1.63;;;1.35;;
60312;SDS011;46158;52.850;6.970;2023-04-24T02:56:08;1.58;;;1.30;;
60312;SDS011;46158;52.850;6.970;2023-04-24T02:58:33;1.42;;;1.30;;
60312;SDS011;46158;52.850;6.970;2023-04-24T03:01:00;1.20;;;1.20;;
60312;SDS011;46158;52.850;6.970;2023-04-24T03:03:26;1.17;;;1.17;;
60312;SDS011;46158;52.850;6.970;2023-04-24T03:05:52;1.55;;;1.10;;
60312;SDS011;46158;52.850;6.970;2023-04-24T03:08:17;1.30;;;1.20;;
60312;SDS011;46158;52.850;6.970;2023-04-24T03:10:43;1.85;;;1.30;;
60312;SDS011;46158;52.850;6.970;2023-04-24T03:13:09;1.30;;;1.20;;
60312;SDS011;46158;52.850;6.970;2023-04-24T03:15:34;2.03;;;1.25;;
60312;SDS011;46158;52.850;6.970;2023-04-24T03:18:00;1.17;;;1.17;;
60312;SDS011;46158;52.850;6.970;2023-04-24T03:20:27;1.17;;;1.00;;
60312;SDS011;46158;52.850;6.970;2023-04-24T03:22:53;1.92;;;1.38;;
60312;SDS011;46158;52.850;6.970;2023-04-24T03:25:19;1.15;;;1.15;;
60312;SDS011;46158;52.850;6.970;2023-04-24T03:27:44;1.20;;;1.10;;
60312;SDS011;46158;52.850;6.970;2023-04-24T03:30:10;1.38;;;1.30;;
60312;SDS011;46158;52.850;6.970;2023-04-24T03:32:36;1.05;;;1.05;;
60312;SDS011;46158;52.850;6.970;2023-04-24T03:35:01;1.30;;;1.20;;
60312;SDS011;46158;52.850;6.970;2023-04-24T03:37:28;1.90;;;1.40;;
60312;SDS011;46158;52.850;6.970;2023-04-24T03:39:53;2.50;;;1.20;;
60312;SDS011;46158;52.850;6.970;2023-04-24T03:42:19;1.13;;;1.05;;
60312;SDS011;46158;52.850;6.970;2023-04-24T03:44:45;1.15;;;1.15;;
60312;SDS011;46158;52.850;6.970;2023-04-24T03:47:11;1.58;;;1.23;;
60312;SDS011;46158;52.850;6.970;2023-04-24T03:49:36;1.30;;;1.20;;
60312;SDS011;46158;52.850;6.970;2023-04-24T03:52:05;1.08;;;1.02;;
60312;SDS011;46158;52.850;6.970;2023-04-24T03:54:31;1.13;;;1.13;;
60312;SDS011;46158;52.850;6.970;2023-04-24T03:56:56;1.30;;;1.20;;
60312;SDS011;46158;52.850;6.970;2023-04-24T03:59:22;1.10;;;1.10;;
60312;SDS011;46158;52.850;6.970;2023-04-24T04:01:48;1.42;;;1.23;;
60312;SDS011;46158;52.850;6.970;2023-04-24T04:04:13;1.10;;;1.10;;
60312;SDS011;46158;52.850;6.970;2023-04-24T04:06:39;1.40;;;1.30;;
60312;SDS011;46158;52.850;6.970;2023-04-24T04:09:05;1.35;;;1.25;;
60312;SDS011;46158;52.850;6.970;2023-04-24T04:11:32;1.45;;;1.23;;
60312;SDS011;46158;52.850;6.970;2023-04-24T04:13:57;1.00;;;1.00;;
60312;SDS011;46158;52.850;6.970;2023-04-24T04:16:23;1.10;;;1.10;;
60312;SDS011;46158;52.850;6.970;2023-04-24T04:18:49;1.17;;;1.17;;
60312;SDS011;46158;52.850;6.970;2023-04-24T04:21:15;1.00;;;1.00;;
60312;SDS011;46158;52.850;6.970;2023-04-24T04:23:40;1.30;;;1.30;;
60312;SDS011;46158;52.850;6.970;2023-04-24T04:26:06;1.35;;;1.20;;
60312;SDS011;46158;52.850;6.970;2023-04-24T04:28:33;0.82;;;0.82;;
60312;SDS011;46158;52.850;6.970;2023-04-24T04:30:58;3.08;;;1.35;;
60312;SDS011;46158;52.850;6.970;2023-04-24T04:33:24;1.10;;;1.10;;
60312;SDS011;46158;52.850;6.970;2023-04-24T04:35:51;1.25;;;1.20;;
60312;SDS011;46158;52.850;6.970;2023-04-24T04:38:21;1.33;;;1.10;;
60312;SDS011;46158;52.850;6.970;2023-04-24T04:40:47;0.88;;;0.88;;
60312;SDS011;46158;52.850;6.970;2023-04-24T04:43:13;1.10;;;1.10;;
60312;SDS011;46158;52.850;6.970;2023-04-24T04:45:41;1.15;;;1.15;;
60312;SDS011;46158;52.850;6.970;2023-04-24T04:48:08;2.00;;;1.13;;
60312;SDS011;46158;52.850;6.970;2023-04-24T04:50:37;1.00;;;1.00;;
60312;SDS011;46158;52.850;6.970;2023-04-24T04:53:03;1.30;;;1.20;;
60312;SDS011;46158;52.850;6.970;2023-04-24T04:55:28;2.95;;;1.40;;
60312;SDS011;46158;52.850;6.970;2023-04-24T04:57:54;0.93;;;0.93;;
60312;SDS011;46158;52.850;6.970;2023-04-24T05:00:21;1.20;;;1.20;;
60312;SDS011;46158;52.850;6.970;2023-04-24T05:02:48;1.08;;;1.08;;
60312;SDS011;46158;52.850;6.970;2023-04-24T05:05:13;1.05;;;1.05;;
60312;SDS011;46158;52.850;6.970;2023-04-24T05:07:42;1.02;;;1.02;;
60312;SDS011;46158;52.850;6.970;2023-04-24T05:10:08;1.15;;;1.15;;
60312;SDS011;46158;52.850;6.970;2023-04-24T05:12:34;1.00;;;1.00;;
60312;SDS011;46158;52.850;6.970;2023-04-24T05:15:00;1.73;;;1.23;;
60312;SDS011;46158;52.850;6.970;2023-04-24T05:17:25;2.60;;;1.20;;
60312;SDS011;46158;52.850;6.970;2023-04-24T05:19:51;1.38;;;1.10;;
60312;SDS011;46158;52.850;6.970;2023-04-24T05:22:17;0.93;;;0.93;;
60312;SDS011;46158;52.850;6.970;2023-04-24T05:24:45;1.10;;;1.10;;
60312;SDS011;46158;52.850;6.970;2023-04-24T05:27:12;1.40;;;1.30;;
60312;SDS011;46158;52.850;6.970;2023-04-24T05:29:38;1.45;;;1.20;;
60312;SDS011;46158;52.850;6.970;2023-04-24T05:32:04;1.23;;;1.20;;
60312;SDS011;46158;52.850;6.970;2023-04-24T05:34:29;1.40;;;1.20;;
60312;SDS011;46158;52.850;6.970;2023-04-24T05:36:55;1.10;;;1.10;;
60312;SDS011;46158;52.850;6.970;2023-04-24T05:39:21;1.10;;;1.10;;
60312;SDS011;46158;52.850;6.970;2023-04-24T05:41:47;1.10;;;1.10;;
60312;SDS011;46158;52.850;6.970;2023-04-24T05:44:12;1.23;;;1.20;;
60312;SDS011;46158;52.850;6.970;2023-04-24T05:46:38;1.42;;;1.33;;
60312;SDS011;46158;52.850;6.970;2023-04-24T05:49:04;1.38;;;1.17;;
60312;SDS011;46158;52.850;6.970;2023-04-24T05:51:30;1.10;;;1.10;;
60312;SDS011;46158;52.850;6.970;2023-04-24T05:53:56;0.98;;;0.98;;
60312;SDS011;46158;52.850;6.970;2023-04-24T05:56:26;1.00;;;1.00;;
60312;SDS011;46158;52.850;6.970;2023-04-24T05:58:52;1.38;;;1.20;;
60312;SDS011;46158;52.850;6.970;2023-04-24T06:01:17;1.10;;;1.10;;
60312;SDS011;46158;52.850;6.970;2023-04-24T06:03:44;0.90;;;0.90;;
60312;SDS011;46158;52.850;6.970;2023-04-24T06:06:10;0.80;;;0.80;;
60312;SDS011;46158;52.850;6.970;2023-04-24T06:08:35;1.15;;;1.15;;
60312;SDS011;46158;52.850;6.970;2023-04-24T06:11:01;0.90;;;0.90;;
60312;SDS011;46158;52.850;6.970;2023-04-24T06:13:27;1.30;;;1.20;;
60312;SDS011;46158;52.850;6.970;2023-04-24T06:15:53;0.90;;;0.90;;
60312;SDS011;46158;52.850;6.970;2023-04-24T06:18:18;1.20;;;1.20;;
60312;SDS011;46158;52.850;6.970;2023-04-24T06:20:45;1.08;;;1.08;;
60312;SDS011;46158;52.850;6.970;2023-04-24T06:23:11;0.98;;;0.88;;
60312;SDS011;46158;52.850;6.970;2023-04-24T06:25:37;0.82;;;0.82;;
60312;SDS011;46158;52.850;6.970;2023-04-24T06:28:03;1.00;;;1.00;;
60312;SDS011;46158;52.850;6.970;2023-04-24T06:30:29;1.00;;;1.00;;
60312;SDS011;46158;52.850;6.970;2023-04-24T06:32:54;1.17;;;1.08;;
60312;SDS011;46158;52.850;6.970;2023-04-24T06:35:20;0.68;;;0.68;;
60312;SDS011;46158;52.850;6.970;2023-04-24T06:37:46;1.52;;;1.00;;
60312;SDS011;46158;52.850;6.970;2023-04-24T06:40:12;0.80;;;0.80;;
60312;SDS011;46158;52.850;6.970;2023-04-24T06:42:38;1.02;;;1.02;;
60312;SDS011;46158;52.850;6.970;2023-04-24T06:45:03;1.02;;;1.00;;
60312;SDS011;46158;52.850;6.970;2023-04-24T06:47:30;1.20;;;1.00;;
60312;SDS011;46158;52.850;6.970;2023-04-24T06:49:56;1.13;;;1.02;;
60312;SDS011;46158;52.850;6.970;2023-04-24T06:52:22;0.85;;;0.85;;
60312;SDS011;46158;52.850;6.970;2023-04-24T06:54:47;0.90;;;0.80;;
60312;SDS011;46158;52.850;6.970;2023-04-24T06:57:13;0.85;;;0.85;;
60312;SDS011;46158;52.850;6.970;2023-04-24T06:59:41;1.23;;;0.93;;
60312;SDS011;46158;52.850;6.970;2023-04-24T07:02:07;0.90;;;0.90;;
60312;SDS011;46158;52.850;6.970;2023-04-24T07:04:32;0.90;;;0.90;;
60312;SDS011;46158;52.850;6.970;2023-04-24T07:06:58;0.90;;;0.90;;
60312;SDS011;46158;52.850;6.970;2023-04-24T07:09:26;1.00;;;1.00;;
60312;SDS011;46158;52.850;6.970;2023-04-24T07:11:52;0.95;;;0.95;;
60312;SDS011;46158;52.850;6.970;2023-04-24T07:14:18;1.20;;;1.10;;
60312;SDS011;46158;52.850;6.970;2023-04-24T07:16:44;0.90;;;0.82;;
60312;SDS011;46158;52.850;6.970;2023-04-24T07:19:10;0.70;;;0.70;;
60312;SDS011;46158;52.850;6.970;2023-04-24T07:21:37;1.00;;;1.00;;
60312;SDS011;46158;52.850;6.970;2023-04-24T07:24:03;1.48;;;1.00;;
60312;SDS011;46158;52.850;6.970;2023-04-24T07:26:29;0.80;;;0.80;;
60312;SDS011;46158;52.850;6.970;2023-04-24T07:28:55;0.85;;;0.85;;
60312;SDS011;46158;52.850;6.970;2023-04-24T07:31:21;1.05;;;1.05;;
60312;SDS011;46158;52.850;6.970;2023-04-24T07:33:47;0.60;;;0.60;;
60312;SDS011;46158;52.850;6.970;2023-04-24T07:36:13;0.98;;;0.98;;
60312;SDS011;46158;52.850;6.970;2023-04-24T07:41:10;0.90;;;0.90;;
60312;SDS011;46158;52.850;6.970;2023-04-24T07:43:36;0.70;;;0.70;;
60312;SDS011;46158;52.850;6.970;2023-04-24T07:46:02;0.90;;;0.90;;
60312;SDS011;46158;52.850;6.970;2023-04-24T07:48:28;0.90;;;0.90;;
60312;SDS011;46158;52.850;6.970;2023-04-24T07:50:53;0.75;;;0.75;;
60312;SDS011;46158;52.850;6.970;2023-04-24T07:53:19;0.82;;;0.82;;
60312;SDS011;46158;52.850;6.970;2023-04-24T07:55:45;0.80;;;0.80;;
60312;SDS011;46158;52.850;6.970;2023-04-24T07:58:11;0.90;;;0.90;;
60312;SDS011;46158;52.850;6.970;2023-04-24T08:00:37;1.08;;;1.00;;
60312;SDS011;46158;52.850;6.970;2023-04-24T08:03:03;0.80;;;0.80;;
60312;SDS011;46158;52.850;6.970;2023-04-24T08:05:29;1.40;;;0.75;;
60312;SDS011;46158;52.850;6.970;2023-04-24T08:07:54;0.88;;;0.88;;
60312;SDS011;46158;52.850;6.970;2023-04-24T08:10:23;1.00;;;1.00;;
60312;SDS011;46158;52.850;6.970;2023-04-24T08:12:51;0.80;;;0.80;;
60312;SDS011;46158;52.850;6.970;2023-04-24T08:15:17;0.80;;;0.80;;
60312;SDS011;46158;52.850;6.970;2023-04-24T08:17:44;0.77;;;0.77;;
60312;SDS011;46158;52.850;6.970;2023-04-24T08:20:10;1.77;;;0.90;;
60312;SDS011;46158;52.850;6.970;2023-04-24T08:22:41;0.90;;;0.90;;
60312;SDS011;46158;52.850;6.970;2023-04-24T08:25:08;0.70;;;0.70;;
60312;SDS011;46158;52.850;6.970;2023-04-24T08:27:35;1.05;;;0.90;;
60312;SDS011;46158;52.850;6.970;2023-04-24T08:30:04;1.70;;;0.80;;
60312;SDS011;46158;52.850;6.970;2023-04-24T08:32:31;0.70;;;0.70;;
60312;SDS011;46158;52.850;6.970;2023-04-24T08:34:56;1.23;;;1.08;;
60312;SDS011;46158;52.850;6.970;2023-04-24T08:37:23;1.65;;;1.13;;
60312;SDS011;46158;52.850;6.970;2023-04-24T08:39:50;0.85;;;0.85;;
60312;SDS011;46158;52.850;6.970;2023-04-24T08:42:16;1.00;;;1.00;;
60312;SDS011;46158;52.850;6.970;2023-04-24T08:44:43;1.17;;;1.08;;
60312;SDS011;46158;52.850;6.970;2023-04-24T08:47:10;0.70;;;0.70;;
60312;SDS011;46158;52.850;6.970;2023-04-24T08:49:37;0.80;;;0.80;;
60312;SDS011;46158;52.850;6.970;2023-04-24T08:52:04;0.85;;;0.85;;
60312;SDS011;46158;52.850;6.970;2023-04-24T08:54:31;0.98;;;0.98;;
60312;SDS011;46158;52.850;6.970;2023-04-24T08:56:59;0.98;;;0.90;;
60312;SDS011;46158;52.850;6.970;2023-04-24T08:59:26;0.75;;;0.75;;
60312;SDS011;46158;52.850;6.970;2023-04-24T09:02:03;0.90;;;0.90;;
60312;SDS011;46158;52.850;6.970;2023-04-24T09:04:29;0.82;;;0.80;;
60312;SDS011;46158;52.850;6.970;2023-04-24T09:06:56;1.00;;;1.00;;
60312;SDS011;46158;52.850;6.970;2023-04-24T09:09:23;1.60;;;1.00;;
60312;SDS011;46158;52.850;6.970;2023-04-24T09:11:50;2.25;;;1.23;;
60312;SDS011;46158;52.850;6.970;2023-04-24T09:14:18;1.60;;;1.10;;
60312;SDS011;46158;52.850;6.970;2023-04-24T09:16:45;0.98;;;0.98;;
60312;SDS011;46158;52.850;6.970;2023-04-24T09:19:15;1.55;;;1.08;;
60312;SDS011;46158;52.850;6.970;2023-04-24T09:21:41;1.27;;;1.10;;
60312;SDS011;46158;52.850;6.970;2023-04-24T09:24:15;1.45;;;1.35;;
60312;SDS011;46158;52.850;6.970;2023-04-24T09:26:43;1.17;;;1.08;;
60312;SDS011;46158;52.850;6.970;2023-04-24T09:29:16;1.30;;;1.20;;
60312;SDS011;46158;52.850;6.970;2023-04-24T09:31:42;2.20;;;1.52;;
60312;SDS011;46158;52.850;6.970;2023-04-24T09:34:09;1.27;;;1.20;;
60312;SDS011;46158;52.850;6.970;2023-04-24T09:36:39;1.95;;;1.42;;
60312;SDS011;46158;52.850;6.970;2023-04-24T09:39:15;2.30;;;1.65;;
60312;SDS011;46158;52.850;6.970;2023-04-24T09:41:45;2.45;;;1.80;;
60312;SDS011;46158;52.850;6.970;2023-04-24T09:44:22;2.67;;;1.90;;
60312;SDS011;46158;52.850;6.970;2023-04-24T09:46:51;2.72;;;1.90;;
60312;SDS011;46158;52.850;6.970;2023-04-24T09:49:27;3.55;;;1.95;;
60312;SDS011;46158;52.850;6.970;2023-04-24T09:54:33;3.70;;;2.15;;
60312;SDS011;46158;52.850;6.970;2023-04-24T09:57:01;4.30;;;2.20;;
60312;SDS011;46158;52.850;6.970;2023-04-24T09:59:27;3.10;;;1.90;;
60312;SDS011;46158;52.850;6.970;2023-04-24T10:01:53;3.95;;;2.15;;
60312;SDS011;46158;52.850;6.970;2023-04-24T10:04:20;4.53;;;2.20;;
60312;SDS011;46158;52.850;6.970;2023-04-24T10:06:51;4.72;;;2.25;;
60312;SDS011;46158;52.850;6.970;2023-04-24T10:09:23;4.40;;;2.20;;
60312;SDS011;46158;52.850;6.970;2023-04-24T10:11:50;5.13;;;2.28;;
60312;SDS011;46158;52.850;6.970;2023-04-24T10:14:19;6.85;;;2.17;;
60312;SDS011;46158;52.850;6.970;2023-04-24T10:16:51;4.65;;;2.38;;
60312;SDS011;46158;52.850;6.970;2023-04-24T10:19:18;4.72;;;2.40;;
60312;SDS011;46158;52.850;6.970;2023-04-24T10:21:45;6.07;;;2.63;;
60312;SDS011;46158;52.850;6.970;2023-04-24T10:24:15;6.95;;;2.80;;
60312;SDS011;46158;52.850;6.970;2023-04-24T10:26:42;5.93;;;2.72;;
60312;SDS011;46158;52.850;6.970;2023-04-24T10:29:11;6.93;;;2.58;;
60312;SDS011;46158;52.850;6.970;2023-04-24T10:31:43;4.82;;;2.55;;
60312;SDS011;46158;52.850;6.970;2023-04-24T10:34:16;5.80;;;2.55;;
60312;SDS011;46158;52.850;6.970;2023-04-24T10:36:45;6.80;;;2.55;;
60312;SDS011;46158;52.850;6.970;2023-04-24T10:39:15;6.13;;;2.50;;
60312;SDS011;46158;52.850;6.970;2023-04-24T10:41:42;4.78;;;2.50;;
60312;SDS011;46158;52.850;6.970;2023-04-24T10:46:37;7.40;;;2.80;;
60312;SDS011;46158;52.850;6.970;2023-04-24T10:49:05;4.70;;;2.65;;
60312;SDS011;46158;52.850;6.970;2023-04-24T10:51:51;5.20;;;2.50;;
60312;SDS011;46158;52.850;6.970;2023-04-24T10:54:28;4.13;;;2.53;;
60312;SDS011;46158;52.850;6.970;2023-04-24T10:59:43;6.75;;;2.60;;
60312;SDS011;46158;52.850;6.970;2023-04-24T11:02:09;5.32;;;2.60;;
60312;SDS011;46158;52.850;6.970;2023-04-24T11:04:35;5.80;;;2.50;;
60312;SDS011;46158;52.850;6.970;2023-04-24T11:07:04;6.53;;;2.75;;
60312;SDS011;46158;52.850;6.970;2023-04-24T11:09:33;6.05;;;2.58;;
60312;SDS011;46158;52.850;6.970;2023-04-24T11:12:09;5.55;;;2.55;;
60312;SDS011;46158;52.850;6.970;2023-04-24T11:17:29;8.13;;;2.67;;
60312;SDS011;46158;52.850;6.970;2023-04-24T11:20:09;5.65;;;2.53;;
60312;SDS011;46158;52.850;6.970;2023-04-24T11:22:38;7.47;;;2.70;;
60312;SDS011;46158;52.850;6.970;2023-04-24T11:25:08;6.20;;;2.50;;
60312;SDS011;46158;52.850;6.970;2023-04-24T11:27:43;5.93;;;2.50;;
60312;SDS011;46158;52.850;6.970;2023-04-24T11:30:10;5.40;;;2.60;;
60312;SDS011;46158;52.850;6.970;2023-04-24T11:32:37;6.40;;;2.65;;
60312;SDS011;46158;52.850;6.970;2023-04-24T11:35:16;5.97;;;2.55;;
60312;SDS011;46158;52.850;6.970;2023-04-24T11:37:44;5.95;;;2.53;;
60312;SDS011;46158;52.850;6.970;2023-04-24T11:40:15;7.88;;;2.70;;
60312;SDS011;46158;52.850;6.970;2023-04-24T11:42:45;4.88;;;2.63;;
60312;SDS011;46158;52.850;6.970;2023-04-24T11:47:40;5.93;;;2.50;;
60312;SDS011;46158;52.850;6.970;2023-04-24T11:50:07;7.57;;;2.97;;
60312;SDS011;46158;52.850;6.970;2023-04-24T11:52:41;7.28;;;2.60;;
60312;SDS011;46158;52.850;6.970;2023-04-24T11:55:29;4.65;;;2.40;;
60312;SDS011;46158;52.850;6.970;2023-04-24T11:57:55;6.50;;;2.63;;
60312;SDS011;46158;52.850;6.970;2023-04-24T12:00:27;5.90;;;2.40;;
60312;SDS011;46158;52.850;6.970;2023-04-24T12:03:09;6.47;;;2.70;;
60312;SDS011;46158;52.850;6.970;2023-04-24T12:05:36;6.28;;;2.67;;
60312;SDS011;46158;52.850;6.970;2023-04-24T12:08:02;5.90;;;2.45;;
60312;SDS011;46158;52.850;6.970;2023-04-24T12:10:29;5.72;;;2.63;;
60312;SDS011;46158;52.850;6.970;2023-04-24T12:12:56;5.32;;;2.58;;
60312;SDS011;46158;52.850;6.970;2023-04-24T12:15:22;7.45;;;2.65;;
60312;SDS011;46158;52.850;6.970;2023-04-24T12:17:52;6.68;;;2.35;;
60312;SDS011;46158;52.850;6.970;2023-04-24T12:20:23;8.85;;;2.75;;
60312;SDS011;46158;52.850;6.970;2023-04-24T12:22:57;6.43;;;2.60;;
60312;SDS011;46158;52.850;6.970;2023-04-24T12:25:24;7.45;;;2.65;;
60312;SDS011;46158;52.850;6.970;2023-04-24T12:27:55;5.68;;;2.35;;
60312;SDS011;46158;52.850;6.970;2023-04-24T12:30:40;5.65;;;2.42;;
60312;SDS011;46158;52.850;6.970;2023-04-24T12:33:22;5.38;;;2.40;;
60312;SDS011;46158;52.850;6.970;2023-04-24T12:35:48;6.10;;;2.50;;
60312;SDS011;46158;52.850;6.970;2023-04-24T12:38:21;5.75;;;2.60;;
60312;SDS011;46158;52.850;6.970;2023-04-24T12:43:26;6.47;;;2.42;;
60312;SDS011;46158;52.850;6.970;2023-04-24T12:45:51;7.93;;;2.60;;
60312;SDS011;46158;52.850;6.970;2023-04-24T12:48:17;4.13;;;2.50;;
60312;SDS011;46158;52.850;6.970;2023-04-24T12:50:43;5.72;;;2.30;;
60312;SDS011;46158;52.850;6.970;2023-04-24T12:53:09;8.93;;;2.40;;
60312;SDS011;46158;52.850;6.970;2023-04-24T12:55:36;6.85;;;2.30;;
60312;SDS011;46158;52.850;6.970;2023-04-24T12:58:02;4.95;;;2.30;;
60312;SDS011;46158;52.850;6.970;2023-04-24T13:00:28;5.82;;;2.50;;
60312;SDS011;46158;52.850;6.970;2023-04-24T13:02:54;4.45;;;2.20;;
60312;SDS011;46158;52.850;6.970;2023-04-24T13:05:20;6.03;;;2.40;;
60312;SDS011;46158;52.850;6.970;2023-04-24T13:07:46;6.68;;;2.30;;
60312;SDS011;46158;52.850;6.970;2023-04-24T13:10:12;5.78;;;2.30;;
60312;SDS011;46158;52.850;6.970;2023-04-24T13:12:38;6.57;;;2.35;;
60312;SDS011;46158;52.850;6.970;2023-04-24T13:15:04;5.05;;;2.55;;
60312;SDS011;46158;52.850;6.970;2023-04-24T13:17:30;7.00;;;2.70;;
60312;SDS011;46158;52.850;6.970;2023-04-24T13:19:56;5.63;;;2.45;;
60312;SDS011;46158;52.850;6.970;2023-04-24T13:22:22;6.63;;;2.40;;
60312;SDS011;46158;52.850;6.970;2023-04-24T13:24:48;7.57;;;2.55;;
60312;SDS011;46158;52.850;6.970;2023-04-24T13:27:14;6.82;;;2.30;;
60312;SDS011;46158;52.850;6.970;2023-04-24T13:29:42;9.00;;;2.50;;
60312;SDS011;46158;52.850;6.970;2023-04-24T13:32:08;5.22;;;2.22;;
60312;SDS011;46158;52.850;6.970;2023-04-24T13:34:34;8.18;;;2.30;;
60312;SDS011;46158;52.850;6.970;2023-04-24T13:37:06;7.20;;;2.40;;
60312;SDS011;46158;52.850;6.970;2023-04-24T13:39:33;5.93;;;2.30;;
60312;SDS011;46158;52.850;6.970;2023-04-24T13:41:58;4.97;;;2.30;;
60312;SDS011;46158;52.850;6.970;2023-04-24T13:44:24;4.60;;;2.35;;
60312;SDS011;46158;52.850;6.970;2023-04-24T13:46:51;4.35;;;2.30;;
60312;SDS011;46158;52.850;6.970;2023-04-24T13:49:19;4.15;;;2.30;;
60312;SDS011;46158;52.850;6.970;2023-04-24T13:51:46;5.97;;;2.60;;
60312;SDS011;46158;52.850;6.970;2023-04-24T13:54:12;4.68;;;2.08;;
60312;SDS011;46158;52.850;6.970;2023-04-24T13:56:39;3.33;;;2.08;;
60312;SDS011;46158;52.850;6.970;2023-04-24T13:59:05;5.07;;;2.10;;
60312;SDS011;46158;52.850;6.970;2023-04-24T14:01:31;4.75;;;2.20;;
60312;SDS011;46158;52.850;6.970;2023-04-24T14:03:57;5.95;;;2.22;;
60312;SDS011;46158;52.850;6.970;2023-04-24T14:06:24;8.02;;;2.30;;
60312;SDS011;46158;52.850;6.970;2023-04-24T14:08:50;5.30;;;2.35;;
60312;SDS011;46158;52.850;6.970;2023-04-24T14:11:16;4.30;;;2.08;;
60312;SDS011;46158;52.850;6.970;2023-04-24T14:13:42;6.13;;;2.10;;
60312;SDS011;46158;52.850;6.970;2023-04-24T14:16:08;6.55;;;2.60;;
60312;SDS011;46158;52.850;6.970;2023-04-24T14:18:35;4.53;;;2.20;;
60312;SDS011;46158;52.850;6.970;2023-04-24T14:21:04;4.25;;;2.03;;
60312;SDS011;46158;52.850;6.970;2023-04-24T14:23:30;5.32;;;2.20;;
60312;SDS011;46158;52.850;6.970;2023-04-24T14:25:56;4.20;;;2.03;;
60312;SDS011;46158;52.850;6.970;2023-04-24T14:28:23;4.72;;;2.05;;
60312;SDS011;46158;52.850;6.970;2023-04-24T14:30:49;4.25;;;1.90;;
60312;SDS011;46158;52.850;6.970;2023-04-24T14:33:15;4.97;;;2.20;;
60312;SDS011;46158;52.850;6.970;2023-04-24T14:35:41;3.92;;;1.90;;
60312;SDS011;46158;52.850;6.970;2023-04-24T14:38:11;3.20;;;2.00;;
60312;SDS011;46158;52.850;6.970;2023-04-24T14:40:37;4.25;;;2.00;;
60312;SDS011;46158;52.850;6.970;2023-04-24T14:43:03;3.72;;;1.80;;
60312;SDS011;46158;52.850;6.970;2023-04-24T14:45:29;3.15;;;1.90;;
60312;SDS011;46158;52.850;6.970;2023-04-24T14:47:55;3.40;;;1.80;;
60312;SDS011;46158;52.850;6.970;2023-04-24T14:50:21;4.20;;;1.85;;
60312;SDS011;46158;52.850;6.970;2023-04-24T14:52:46;2.10;;;1.90;;
60312;SDS011;46158;52.850;6.970;2023-04-24T14:55:12;4.82;;;2.10;;
60312;SDS011;46158;52.850;6.970;2023-04-24T14:57:38;7.35;;;2.22;;
60312;SDS011;46158;52.850;6.970;2023-04-24T15:00:07;4.50;;;1.70;;
60312;SDS011;46158;52.850;6.970;2023-04-24T15:02:36;6.03;;;1.90;;
60312;SDS011;46158;52.850;6.970;2023-04-24T15:05:05;4.85;;;1.90;;